Time;durP1;ratioP1;P1;durP2;ratioP2;P2;SDS_P1;SDS_P2;PMS_P1;PMS_P2;Temp;Humidity;BMP_temperature;BMP_pressure;BME280_temperature;BME280_humidity;BME280_pressure;Samples;Min_cycle;Max_cycle;Signal;HPM_P1;HPM_P2
2023/10/07 00:04:17;;;;;;;1.00;0.40;;;;;;;19.89;100.00;101989.00;10442567;28;20053;-77
2023/10/07 00:09:22;;;;;;;0.57;0.57;;;;;;;19.95;100.00;101979.44;10441829;28;20041;-77
2023/10/07 00:14:30;;;;;;;0.30;0.20;;;;;;;20.08;100.00;101976.88;10458359;28;20063;-76
2023/10/07 00:19:33;;;;;;;1.23;0.80;;;;;;;19.52;100.00;101971.38;10458224;28;20045;-77
2023/10/07 00:24:42;;;;;;;0.63;0.55;;;;;;;19.45;100.00;101977.44;10457775;28;20090;-75
2023/10/07 00:29:54;;;;;;;0.80;0.55;;;;;;;19.82;100.00;101977.63;10457161;28;20617;-76
2023/10/07 00:35:00;;;;;;;0.38;0.38;;;;;;;20.13;100.00;101994.34;10416514;28;20061;-77
2023/10/07 00:40:30;;;;;;;0.10;0.10;;;;;;;20.36;100.00;102004.00;10436384;28;20045;-76
2023/10/07 00:45:33;;;;;;;1.73;0.70;;;;;;;20.31;100.00;101994.38;10458777;28;20037;-77
2023/10/07 00:50:35;;;;;;;1.35;0.80;;;;;;;20.14;100.00;101995.22;10457289;28;20140;-75
2023/10/07 00:55:37;;;;;;;0.00;0.00;;;;;;;20.10;100.00;101998.69;10412973;28;20045;-76
2023/10/07 01:16:40;;;;;;;0.95;0.50;;;;;;;20.35;100.00;101993.53;10456063;28;20049;-76
2023/10/07 01:21:59;;;;;;;1.25;0.70;;;;;;;19.99;100.00;101989.94;10414911;28;20527;-77
2023/10/07 01:27:42;;;;;;;0.25;0.13;;;;;;;20.32;100.00;101993.53;10428601;28;20064;-76
2023/10/07 01:32:33;;;;;;;1.55;0.63;;;;;;;20.06;100.00;101991.72;10451227;28;20068;-77
2023/10/07 01:37:42;;;;;;;0.30;0.13;;;;;;;20.23;100.00;101979.53;10455024;28;20144;-77
2023/10/07 01:42:44;;;;;;;0.10;0.10;;;;;;;20.12;100.00;101965.56;10455155;28;20049;-77
2023/10/07 01:47:48;;;;;;;1.05;0.50;;;;;;;19.94;100.00;101969.84;10454885;28;20063;-76
2023/10/07 01:52:55;;;;;;;0.52;0.40;;;;;;;20.13;100.00;101977.78;10456217;28;20029;-76
2023/10/07 01:57:57;;;;;;;0.77;0.60;;;;;;;20.19;100.00;101976.91;10454839;28;20052;-78
2023/10/07 02:03:01;;;;;;;2.28;0.85;;;;;;;20.24;100.00;101985.66;10454785;28;20045;-77
2023/10/07 02:08:03;;;;;;;0.30;0.20;;;;;;;20.14;100.00;101984.75;10438097;28;20044;-76
2023/10/07 02:13:05;;;;;;;1.05;0.68;;;;;;;20.31;100.00;101981.28;10455137;28;20037;-75
2023/10/07 02:18:12;;;;;;;0.22;0.22;;;;;;;20.12;100.00;101971.66;10437862;28;20056;-76
2023/10/07 02:23:43;;;;;;;0.50;0.40;;;;;;;19.86;100.00;101962.84;10437878;28;20127;-75
2023/10/07 02:28:45;;;;;;;0.52;0.30;;;;;;;20.19;100.00;101967.31;10453930;28;20098;-77
2023/10/07 02:33:57;;;;;;;0.52;0.38;;;;;;;19.76;100.00;101967.13;10437601;28;20049;-77
2023/10/07 02:39:18;;;;;;;1.25;0.63;;;;;;;19.66;100.00;101966.19;10454076;28;20045;-76
2023/10/07 02:44:27;;;;;;;0.38;0.35;;;;;;;19.72;100.00;101965.38;10453788;28;20488;-76
2023/10/07 02:49:31;;;;;;;1.45;0.57;;;;;;;19.79;100.00;101956.69;10437338;28;20049;-77
2023/10/07 02:54:33;;;;;;;3.05;1.10;;;;;;;19.98;100.00;101960.28;10453602;28;20048;-76
2023/10/07 02:59:41;;;;;;;0.45;0.30;;;;;;;20.24;100.00;101960.34;10436889;28;20045;-78
2023/10/07 03:05:13;;;;;;;0.13;0.13;;;;;;;20.04;100.00;101956.81;10423047;28;20487;-76
2023/10/07 03:10:29;;;;;;;1.33;0.55;;;;;;;20.01;100.00;101959.41;10436784;28;20040;-76
2023/10/07 03:20:47;;;;;;;0.82;0.43;;;;;;;19.94;100.00;101956.78;10460502;28;20053;-76
2023/10/07 03:30:55;;;;;;;1.30;0.82;;;;;;;20.21;100.00;101959.47;10461321;28;20040;-77
2023/10/07 03:41:00;;;;;;;0.80;0.73;;;;;;;20.21;100.00;101970.84;10461022;28;20523;-76
2023/10/07 03:46:02;;;;;;;0.93;0.80;;;;;;;20.44;100.00;101967.38;10459979;28;20403;-77
2023/10/07 03:51:07;;;;;;;0.95;0.50;;;;;;;20.58;100.00;101964.78;10459354;28;20446;-76
2023/10/07 03:56:09;;;;;;;0.22;0.22;;;;;;;20.52;100.00;101960.41;10459347;28;20083;-76
2023/10/07 04:01:11;;;;;;;1.50;0.60;;;;;;;20.55;100.00;101952.56;10442648;28;20051;-76
2023/10/07 04:06:16;;;;;;;0.52;0.43;;;;;;;20.16;100.00;101955.97;10445393;28;20086;-76
2023/10/07 04:11:19;;;;;;;1.05;0.68;;;;;;;20.31;100.00;101942.03;10441717;28;20045;-76
2023/10/07 04:16:27;;;;;;;0.43;0.38;;;;;;;20.60;100.00;101942.97;10458533;28;20056;-76
2023/10/07 04:21:30;;;;;;;1.85;1.10;;;;;;;20.17;100.00;101937.66;10444605;28;20087;-77
2023/10/07 04:26:33;;;;;;;1.52;0.73;;;;;;;19.96;100.00;101928.91;10457238;28;20071;-77
2023/10/07 04:31:37;;;;;;;2.67;2.00;;;;;;;20.29;100.00;101931.59;10458018;28;20483;-77
2023/10/07 04:37:08;;;;;;;0.57;0.50;;;;;;;20.08;100.00;101937.63;10458872;28;20095;-78
2023/10/07 04:42:03;;;;;;;2.40;0.95;;;;;;;20.43;100.00;101940.31;10457308;28;20041;-77
2023/10/07 04:47:34;;;;;;;1.38;0.80;;;;;;;20.27;100.00;101944.69;10457687;28;20411;-77
2023/10/07 04:52:50;;;;;;;0.85;0.73;;;;;;;20.86;100.00;101939.50;10457589;28;20041;-77
2023/10/07 05:02:57;;;;;;;0.75;0.63;;;;;;;20.71;100.00;101940.34;10456662;28;20412;-76
2023/10/07 05:08:17;;;;;;;2.97;0.95;;;;;;;21.15;100.00;101943.84;10439708;28;20041;-77
2023/10/07 05:13:20;;;;;;;1.73;0.57;;;;;;;20.88;100.00;101948.25;10456422;28;20044;-77
2023/10/07 05:18:22;;;;;;;0.30;0.30;;;;;;;21.08;100.00;101939.50;10431238;28;20091;-77
2023/10/07 05:23:24;;;;;;;1.08;0.90;;;;;;;20.82;100.00;101932.50;10447833;28;20080;-78
2023/10/07 05:28:27;;;;;;;2.95;1.10;;;;;;;20.60;100.00;101948.19;10457031;28;20052;-77
2023/10/07 05:33:32;;;;;;;4.18;0.60;;;;;;;20.77;100.00;101939.50;10438718;28;20144;-76
2023/10/07 05:38:36;;;;;;;0.47;0.47;;;;;;;21.04;100.00;101946.47;10438827;28;20044;-76
2023/10/07 05:43:40;;;;;;;3.47;1.30;;;;;;;20.75;100.00;101942.13;10438589;28;20048;-76
2023/10/07 05:48:42;;;;;;;2.67;0.95;;;;;;;20.43;100.00;101939.47;10439114;28;20511;-77
2023/10/07 05:53:51;;;;;;;1.90;1.13;;;;;;;20.69;100.00;101935.97;10454855;28;20040;-77
2023/10/07 05:58:55;;;;;;;3.67;1.03;;;;;;;20.73;100.00;101927.31;10454491;28;20431;-77
2023/10/07 06:04:00;;;;;;;1.17;0.70;;;;;;;20.88;100.00;101918.53;10455594;28;20782;-76
2023/10/07 06:09:03;;;;;;;4.57;1.15;;;;;;;21.09;100.00;101922.91;10437926;28;20052;-77
2023/10/07 06:14:06;;;;;;;0.80;0.80;;;;;;;21.06;100.00;101939.50;10436492;28;20140;-77
2023/10/07 06:19:11;;;;;;;1.17;1.08;;;;;;;21.09;100.00;101946.47;10453965;28;20060;-77
2023/10/07 06:24:20;;;;;;;1.30;0.50;;;;;;;20.99;100.00;101952.59;10454162;28;20043;-77
2023/10/07 06:29:25;;;;;;;1.30;0.90;;;;;;;21.27;100.00;101965.66;10453448;28;20496;-76
2023/10/07 06:34:26;;;;;;;3.20;0.82;;;;;;;21.24;100.00;101962.19;10469869;28;20053;-77
2023/10/07 06:39:28;;;;;;;0.80;0.60;;;;;;;21.13;100.00;101956.06;10452904;28;20466;-76
2023/10/07 06:44:30;;;;;;;1.98;1.27;;;;;;;21.52;100.00;101951.63;10452323;28;20401;-78
2023/10/07 06:49:39;;;;;;;1.67;1.25;;;;;;;21.35;100.00;101958.66;10452993;28;20482;-77
2023/10/07 06:54:41;;;;;;;1.10;1.00;;;;;;;21.17;100.00;101965.69;10461020;28;20049;-77
2023/10/07 06:59:56;;;;;;;7.50;1.48;;;;;;;21.34;100.00;101970.00;10461236;28;20041;-77
2023/10/07 07:04:58;;;;;;;1.70;1.17;;;;;;;21.22;100.00;101969.16;10443993;28;20045;-76
2023/10/07 07:10:07;;;;;;;2.22;0.50;;;;;;;21.41;100.00;101976.97;10443427;28;20102;-77
2023/10/07 07:15:09;;;;;;;1.52;0.77;;;;;;;21.27;100.00;101999.72;10418471;28;20045;-76
2023/10/07 07:30:32;;;;;;;4.22;1.15;;;;;;;21.36;100.00;102007.56;10460065;28;20069;-77
2023/10/07 07:35:39;;;;;;;0.55;0.50;;;;;;;21.93;100.00;102004.84;10459701;28;20052;-77
2023/10/07 07:40:43;;;;;;;2.75;1.38;;;;;;;21.75;100.00;101997.91;10459891;28;20045;-78
2023/10/07 07:45:46;;;;;;;2.15;1.35;;;;;;;21.77;100.00;101992.66;10442725;28;20523;-77
2023/10/07 07:50:48;;;;;;;2.33;0.95;;;;;;;22.06;100.00;101973.28;10458782;28;20098;-77
2023/10/07 07:55:55;;;;;;;0.70;0.50;;;;;;;21.69;100.00;101980.44;10442171;28;20049;-77
2023/10/07 08:01:01;;;;;;;4.53;1.17;;;;;;;21.68;100.00;101977.81;10457862;28;20048;-77
2023/10/07 08:06:04;;;;;;;1.67;0.85;;;;;;;21.82;100.00;101991.75;10458164;28;20112;-76
2023/10/07 08:11:07;;;;;;;0.88;0.43;;;;;;;21.87;100.00;101984.75;10457838;28;20037;-78
2023/10/07 08:16:15;;;;;;;0.77;0.50;;;;;;;21.84;100.00;101995.25;10434738;28;20049;-77
2023/10/07 08:21:17;;;;;;;4.38;1.45;;;;;;;21.83;100.00;102003.13;10452178;28;20480;-77
2023/10/07 08:26:23;;;;;;;1.30;1.15;;;;;;;22.10;100.00;102006.53;10457574;28;20057;-77
2023/10/07 08:31:38;;;;;;;5.22;1.42;;;;;;;21.54;100.00;101997.06;10457502;28;20059;-77
2023/10/07 08:36:43;;;;;;;0.55;0.52;;;;;;;22.17;100.00;101985.47;10457632;28;20056;-76
2023/10/07 08:41:52;;;;;;;0.98;0.85;;;;;;;23.60;100.00;101972.06;10440654;28;20143;-76
2023/10/07 08:47:03;;;;;;;2.08;1.80;;;;;;;23.68;100.00;101968.50;10441022;28;20087;-78
2023/10/07 08:52:09;;;;;;;0.73;0.60;;;;;;;23.10;100.00;101976.06;10456877;28;20045;-76
2023/10/07 08:57:16;;;;;;;2.25;1.50;;;;;;;23.55;100.00;101994.91;10440395;28;20055;-77
2023/10/07 09:02:27;;;;;;;0.60;0.50;;;;;;;23.71;100.00;101989.50;10439917;28;20183;-76
2023/10/07 09:07:33;;;;;;;1.85;0.68;;;;;;;24.11;100.00;101978.50;10456137;28;20057;-76
2023/10/07 09:12:43;;;;;;;0.20;0.20;;;;;;;24.98;100.00;101962.22;10455712;28;20111;-76
2023/10/07 09:17:45;;;;;;;0.25;0.20;;;;;;;24.74;100.00;101962.66;10455662;28;20048;-76
2023/10/07 09:22:53;;;;;;;1.77;0.52;;;;;;;24.93;100.00;101961.44;10447222;28;20407;-78
2023/10/07 09:28:01;;;;;;;0.20;0.20;;;;;;;24.82;100.00;101971.31;10427066;28;20057;-77
2023/10/07 09:33:18;;;;;;;0.22;0.13;;;;;;;25.14;100.00;101967.22;10430739;28;20045;-76
2023/10/07 09:38:29;;;;;;;0.20;0.20;;;;;;;24.50;100.00;101975.28;10443313;28;20044;-78
2023/10/07 09:43:33;;;;;;;0.20;0.20;;;;;;;24.06;100.00;101986.44;10454817;28;20041;-77
2023/10/07 09:48:41;;;;;;;1.13;0.98;;;;;;;24.85;100.00;101987.06;10438474;28;20045;-77
2023/10/07 09:53:51;;;;;;;0.57;0.32;;;;;;;25.12;100.00;101990.13;10454549;28;20049;-77
2023/10/07 09:59:17;;;;;;;2.90;0.73;;;;;;;25.20;100.00;101993.50;10454572;28;20492;-78
2023/10/07 10:04:36;;;;;;;0.90;0.70;;;;;;;24.18;100.00;101997.69;10454898;28;20045;-76
2023/10/07 10:20:27;;;;;;;0.45;0.38;;;;;;;25.35;100.00;101993.19;10453779;28;20118;-76
2023/10/07 10:30:50;;;;;;;0.50;0.43;;;;;;;24.75;100.00;101998.66;10463868;28;20037;-77
2023/10/07 10:35:52;;;;;;;0.35;0.28;;;;;;;24.99;100.00;101995.59;10445746;28;20511;-77
2023/10/07 10:40:57;;;;;;;0.60;0.52;;;;;;;24.76;100.00;101998.63;10461923;28;20072;-77
2023/10/07 10:46:06;;;;;;;0.68;0.30;;;;;;;24.22;100.00;101992.38;10461946;28;20053;-77
2023/10/07 10:51:09;;;;;;;0.60;0.28;;;;;;;24.32;100.00;101998.38;10461475;28;20045;-78
2023/10/07 10:56:11;;;;;;;1.65;1.17;;;;;;;24.63;100.00;102007.59;10461610;28;20125;-76
2023/10/07 11:01:12;;;;;;;1.05;0.47;;;;;;;24.67;100.00;102010.19;10461348;28;20508;-77
2023/10/07 11:06:15;;;;;;;0.30;0.20;;;;;;;24.83;100.00;102010.81;10444333;28;20053;-76
2023/10/07 11:11:17;;;;;;;1.08;0.68;;;;;;;25.10;100.00;102007.72;10460871;28;20137;-76
2023/10/07 11:16:19;;;;;;;0.40;0.30;;;;;;;24.97;100.00;102007.94;10460706;28;20045;-77
2023/10/07 11:21:21;;;;;;;0.60;0.47;;;;;;;25.09;100.00;101995.44;10444000;28;20409;-76
2023/10/07 11:26:27;;;;;;;1.65;0.30;;;;;;;25.15;100.00;101988.31;10443904;28;20558;-78
2023/10/07 11:31:30;;;;;;;0.98;0.65;;;;;;;25.46;100.00;102000.06;10460031;28;20045;-76
2023/10/07 11:36:45;;;;;;;0.98;0.45;;;;;;;24.92;100.00;102009.78;10459342;28;20080;-77
2023/10/07 11:41:47;;;;;;;1.30;0.50;;;;;;;25.49;100.00;101992.09;10459607;28;20041;-76
2023/10/07 11:46:50;;;;;;;1.35;0.60;;;;;;;24.50;100.00;101999.00;10459540;28;20060;-77
2023/10/07 11:51:54;;;;;;;1.77;1.13;;;;;;;25.61;100.00;101999.75;10459343;28;20552;-76
2023/10/07 11:56:56;;;;;;;0.52;0.45;;;;;;;25.75;100.00;101996.88;10459242;28;20443;-77
2023/10/07 12:01:58;;;;;;;0.22;0.22;;;;;;;25.55;100.00;102002.53;10457933;28;20499;-77
2023/10/07 12:07:00;;;;;;;4.65;0.40;;;;;;;25.44;100.00;101996.56;10460318;28;20457;-77
2023/10/07 12:12:03;;;;;;;1.90;0.43;;;;;;;24.96;100.00;102000.94;10442216;28;20144;-77
2023/10/07 12:17:07;;;;;;;1.48;1.17;;;;;;;25.29;100.00;101993.31;10458047;28;20053;-78
2023/10/07 12:22:13;;;;;;;4.05;0.52;;;;;;;25.92;100.00;102014.97;10459793;28;20048;-77
2023/10/07 12:27:15;;;;;;;0.68;0.50;;;;;;;25.91;100.00;102010.59;10458436;28;20045;-77
2023/10/07 12:32:17;;;;;;;0.60;0.28;;;;;;;25.28;100.00;101996.84;10440997;28;20510;-77
2023/10/07 12:37:20;;;;;;;0.30;0.28;;;;;;;25.36;100.00;102009.91;10458029;28;20041;-76
2023/10/07 12:42:25;;;;;;;1.27;0.40;;;;;;;25.67;100.00;102004.06;10458547;28;20041;-77
2023/10/07 12:47:29;;;;;;;0.75;0.35;;;;;;;25.57;100.00;101995.47;10456363;28;20146;-76
2023/10/07 12:52:31;;;;;;;2.22;1.25;;;;;;;25.68;100.00;101992.59;10437281;28;20053;-76
2023/10/07 12:57:33;;;;;;;0.65;0.52;;;;;;;25.86;100.00;101988.72;10427656;28;20054;-77
2023/10/07 13:02:37;;;;;;;0.75;0.47;;;;;;;25.49;100.00;101973.63;10427539;28;20045;-77
2023/10/07 13:07:42;;;;;;;1.02;0.40;;;;;;;26.56;100.00;101958.97;10457168;28;20068;-77
2023/10/07 13:12:44;;;;;;;0.95;0.55;;;;;;;26.16;100.00;101943.19;10456065;28;20045;-77
2023/10/07 13:17:46;;;;;;;0.52;0.20;;;;;;;25.33;100.00;101939.63;10455692;28;20153;-77
2023/10/07 13:22:49;;;;;;;0.50;0.25;;;;;;;25.29;100.00;101940.56;10448967;28;20037;-77
2023/10/07 13:27:51;;;;;;;0.90;0.65;;;;;;;25.57;100.00;101945.34;10455730;28;20545;-78
2023/10/07 13:32:56;;;;;;;0.43;0.32;;;;;;;25.93;100.00;101947.19;10455246;28;20037;-77
2023/10/07 13:37:58;;;;;;;0.55;0.22;;;;;;;25.65;100.00;101953.94;10438523;28;20099;-78
2023/10/07 13:43:00;;;;;;;0.13;0.10;;;;;;;25.64;100.00;101954.84;10454894;28;20413;-77
2023/10/07 13:48:03;;;;;;;2.08;0.55;;;;;;;25.30;100.00;101963.41;10454947;28;20044;-78
2023/10/07 13:58:16;;;;;;;0.32;0.10;;;;;;;25.48;100.00;101966.63;10454559;28;20131;-78
2023/10/07 14:03:20;;;;;;;0.25;0.20;;;;;;;25.27;100.00;101957.31;10454812;28;20045;-77
2023/10/07 14:08:29;;;;;;;0.45;0.45;;;;;;;25.55;100.00;101931.28;10438342;28;20049;-77
2023/10/07 14:13:33;;;;;;;0.43;0.43;;;;;;;25.61;100.00;101952.28;10442275;28;20492;-78
2023/10/07 14:18:38;;;;;;;0.47;0.47;;;;;;;25.52;100.00;101955.09;10454167;28;20404;-77
2023/10/07 14:23:40;;;;;;;1.15;0.52;;;;;;;25.53;100.00;101954.19;10454517;28;20053;-78
2023/10/07 14:28:44;;;;;;;0.80;0.50;;;;;;;25.45;100.00;101945.56;10437705;28;20055;-77
2023/10/07 14:33:47;;;;;;;0.35;0.25;;;;;;;25.12;100.00;101937.38;10440204;28;20380;-79
2023/10/07 14:38:49;;;;;;;1.02;0.35;;;;;;;24.79;100.00;101945.00;10454063;28;20148;-78
2023/10/07 14:43:50;;;;;;;0.75;0.35;;;;;;;25.01;100.00;101927.91;10454965;28;20051;-77
2023/10/07 14:48:52;;;;;;;0.32;0.30;;;;;;;24.78;100.00;101911.63;10453114;28;20075;-76
2023/10/07 14:53:53;;;;;;;0.38;0.30;;;;;;;24.59;100.00;101914.56;10453097;28;20041;-77
2023/10/07 14:58:55;;;;;;;0.52;0.22;;;;;;;24.64;100.00;101917.97;10454571;28;20077;-77
2023/10/07 15:03:59;;;;;;;1.15;0.32;;;;;;;24.48;100.00;101925.28;10436775;28;20045;-77
2023/10/07 15:09:01;;;;;;;0.25;0.15;;;;;;;24.55;100.00;101905.84;10436609;28;20041;-77
2023/10/07 15:14:02;;;;;;;0.20;0.20;;;;;;;24.52;100.00;101919.06;10442605;28;20037;-77
2023/10/07 15:19:05;;;;;;;1.50;0.70;;;;;;;24.61;100.00;101915.38;10460903;28;20041;-76
2023/10/07 15:24:07;;;;;;;0.40;0.10;;;;;;;24.49;100.00;101921.75;10434601;28;20049;-77
2023/10/07 15:29:09;;;;;;;1.25;0.70;;;;;;;24.52;100.00;101934.00;10443985;28;20037;-76
2023/10/07 15:34:11;;;;;;;3.92;0.65;;;;;;;24.77;100.00;101941.50;10460516;28;20118;-78
2023/10/07 15:39:15;;;;;;;0.00;0.00;;;;;;;24.66;100.00;101946.94;10459735;28;20045;-77
2023/10/07 15:44:19;;;;;;;0.10;0.10;;;;;;;24.37;100.00;101951.78;10460536;28;20049;-77
2023/10/07 15:49:20;;;;;;;0.10;0.10;;;;;;;24.48;100.00;101961.25;10459534;28;20049;-78
2023/10/07 15:54:22;;;;;;;0.35;0.28;;;;;;;24.50;100.00;101959.50;10459400;28;20500;-77
2023/10/07 15:59:24;;;;;;;0.10;0.10;;;;;;;24.29;100.00;101977.38;10459319;28;20040;-77
2023/10/07 16:04:27;;;;;;;0.00;0.00;;;;;;;24.36;100.00;101975.50;10459471;28;20037;-77
2023/10/07 16:09:30;;;;;;;3.22;0.93;;;;;;;24.58;100.00;101991.84;10460203;28;20124;-79
2023/10/07 16:14:34;;;;;;;0.88;0.28;;;;;;;24.45;100.00;101983.25;10458822;28;20041;-78
2023/10/07 16:19:37;;;;;;;0.00;0.00;;;;;;;24.55;100.00;101965.53;10458300;28;20408;-78
2023/10/07 16:24:39;;;;;;;0.03;0.03;;;;;;;24.50;100.00;101943.69;10457906;28;20041;-78
2023/10/07 16:29:41;;;;;;;0.52;0.17;;;;;;;24.40;100.00;101954.34;10459183;28;20037;-78
2023/10/07 16:34:42;;;;;;;0.88;0.35;;;;;;;24.15;100.00;101945.09;10457669;28;20033;-78
2023/10/07 16:39:45;;;;;;;0.25;0.20;;;;;;;24.18;100.00;101937.13;10457763;28;20052;-78
2023/10/07 16:44:47;;;;;;;0.40;0.38;;;;;;;24.01;100.00;101940.03;10457456;28;20055;-78
2023/10/07 16:49:48;;;;;;;0.00;0.00;;;;;;;24.19;100.00;101938.88;10440289;28;20057;-76
2023/10/07 16:54:50;;;;;;;0.30;0.25;;;;;;;23.92;100.00;101947.13;10440500;28;20052;-77
2023/10/07 16:59:53;;;;;;;0.50;0.50;;;;;;;23.81;100.00;101961.28;10440293;28;20068;-77
2023/10/07 17:04:56;;;;;;;10.15;0.45;;;;;;;23.89;100.00;101959.44;10456582;28;20068;-79
2023/10/07 17:09:58;;;;;;;0.38;0.22;;;;;;;23.37;100.00;101980.22;10456548;28;20053;-76
2023/10/07 17:14:59;;;;;;;0.10;0.10;;;;;;;23.66;100.00;101986.91;10440025;28;20041;-77
2023/10/07 17:20:06;;;;;;;0.40;0.10;;;;;;;23.75;100.00;101989.44;10456427;28;20140;-77
2023/10/07 17:25:09;;;;;;;0.47;0.35;;;;;;;23.70;100.00;101993.91;10439800;28;20048;-78
2023/10/07 17:30:15;;;;;;;0.08;0.05;;;;;;;23.83;100.00;102004.25;10455985;28;20458;-79
2023/10/07 17:35:17;;;;;;;0.20;0.20;;;;;;;23.79;100.00;101997.31;10439066;28;20138;-77
2023/10/07 17:40:19;;;;;;;1.45;0.57;;;;;;;23.85;100.00;102008.59;10455780;28;20071;-78
2023/10/07 17:45:24;;;;;;;0.80;0.55;;;;;;;23.60;100.00;101997.50;10456735;28;20048;-78
2023/10/07 17:50:28;;;;;;;0.00;0.00;;;;;;;23.69;100.00;101989.50;10455270;28;20059;-78
2023/10/07 17:55:30;;;;;;;0.75;0.43;;;;;;;23.56;100.00;101987.91;10455106;28;20594;-78
2023/10/07 18:00:33;;;;;;;0.63;0.28;;;;;;;23.69;100.00;101994.78;10438414;28;20053;-77
2023/10/07 18:05:36;;;;;;;0.47;0.40;;;;;;;23.80;100.00;101988.50;10438151;28;20472;-78
2023/10/07 18:10:38;;;;;;;0.17;0.13;;;;;;;23.70;100.00;101978.09;10454695;28;20048;-78
2023/10/07 18:15:41;;;;;;;0.15;0.15;;;;;;;23.67;100.00;101978.13;10454120;28;20098;-77
2023/10/07 18:20:54;;;;;;;0.10;0.10;;;;;;;23.82;100.00;101970.94;10437562;28;20061;-77
2023/10/07 18:25:56;;;;;;;0.15;0.15;;;;;;;23.67;100.00;101967.59;10453524;28;20160;-78
2023/10/07 18:31:00;;;;;;;0.70;0.35;;;;;;;23.49;100.00;101984.47;10453665;28;20064;-78
2023/10/07 18:36:03;;;;;;;0.20;0.20;;;;;;;23.62;100.00;101982.59;10453915;28;20508;-77
2023/10/07 18:41:09;;;;;;;0.10;0.10;;;;;;;23.49;100.00;101986.25;10454046;28;20056;-78
2023/10/07 18:46:11;;;;;;;0.10;0.00;;;;;;;23.42;100.00;101988.91;10455571;28;20520;-78
2023/10/07 18:51:13;;;;;;;0.20;0.20;;;;;;;23.29;100.00;101993.47;10462277;28;20059;-78
2023/10/07 18:56:15;;;;;;;0.30;0.20;;;;;;;23.39;100.00;101991.59;10445504;28;20048;-78
2023/10/07 19:01:16;;;;;;;0.82;0.30;;;;;;;23.37;100.00;101992.50;10461852;28;20071;-78
2023/10/07 19:06:18;;;;;;;0.32;0.15;;;;;;;23.30;100.00;101989.06;10461312;28;20094;-78
2023/10/07 19:11:21;;;;;;;0.00;0.00;;;;;;;23.32;100.00;101981.13;10461410;28;20045;-78
2023/10/07 19:16:22;;;;;;;0.70;0.65;;;;;;;23.42;100.00;101977.53;10461106;28;20048;-78
2023/10/07 19:21:25;;;;;;;0.32;0.20;;;;;;;23.36;100.00;101986.34;10444630;28;20492;-78
2023/10/07 19:26:27;;;;;;;0.10;0.10;;;;;;;23.55;100.00;102007.22;10460687;28;20049;-78
2023/10/07 19:31:28;;;;;;;1.48;0.22;;;;;;;23.51;100.00;102018.63;10460596;28;20041;-78
2023/10/07 19:36:31;;;;;;;0.00;0.00;;;;;;;23.27;100.00;102013.63;10444534;28;20049;-78
2023/10/07 19:41:32;;;;;;;2.17;0.43;;;;;;;23.53;100.00;102016.88;10443391;28;20075;-78
2023/10/07 19:46:34;;;;;;;0.65;0.10;;;;;;;23.52;100.00;102036.16;10443110;28;20492;-78
2023/10/07 19:51:36;;;;;;;0.57;0.47;;;;;;;23.41;100.00;102023.13;10440948;28;20041;-78
2023/10/07 19:56:38;;;;;;;0.10;0.10;;;;;;;23.42;100.00;102020.47;10459286;28;20381;-78
2023/10/07 20:01:40;;;;;;;0.55;0.15;;;;;;;23.42;100.00;102009.94;10459227;28;20106;-77
2023/10/07 20:06:42;;;;;;;1.55;0.47;;;;;;;23.27;100.00;102026.78;10459199;28;20057;-76
2023/10/07 20:11:45;;;;;;;2.35;0.60;;;;;;;23.55;100.00;102020.38;10459231;28;20037;-78
2023/10/07 20:16:49;;;;;;;0.40;0.40;;;;;;;23.44;100.00;102008.19;10459019;28;20053;-76
2023/10/07 20:21:53;;;;;;;0.43;0.32;;;;;;;23.43;100.00;102022.22;10458655;28;20049;-77
2023/10/07 20:26:54;;;;;;;0.80;0.73;;;;;;;23.61;100.00;102039.56;10458598;28;20048;-77
2023/10/07 20:31:56;;;;;;;0.32;0.20;;;;;;;23.63;100.00;102018.53;10458425;28;20056;-78
2023/10/07 20:36:58;;;;;;;0.63;0.38;;;;;;;23.67;100.00;102035.16;10458047;28;20103;-77
2023/10/07 20:42:00;;;;;;;1.35;0.35;;;;;;;23.66;100.00;102060.56;10458270;28;20384;-78
2023/10/07 20:47:02;;;;;;;2.58;0.32;;;;;;;23.57;100.00;102044.88;10459389;28;20099;-78
2023/10/07 20:52:05;;;;;;;0.28;0.10;;;;;;;23.57;100.00;102044.88;10428213;28;20052;-78
2023/10/07 20:57:08;;;;;;;0.57;0.55;;;;;;;23.33;100.00;102046.88;10441125;28;20045;-77
2023/10/07 21:02:10;;;;;;;5.28;0.73;;;;;;;23.44;100.00;102029.22;10440530;28;20044;-77
2023/10/07 21:07:11;;;;;;;1.70;0.77;;;;;;;23.51;100.00;102026.53;10440541;28;20053;-78
2023/10/07 21:12:13;;;;;;;0.35;0.28;;;;;;;23.49;100.00;102020.44;10456133;28;20052;-78
2023/10/07 21:17:16;;;;;;;0.10;0.05;;;;;;;23.42;100.00;102051.16;10456945;28;20045;-78
2023/10/07 21:22:18;;;;;;;0.05;0.03;;;;;;;23.42;100.00;102046.78;10456155;28;20487;-78
2023/10/07 21:27:20;;;;;;;1.15;0.20;;;;;;;23.39;100.00;102038.94;10439622;28;20053;-78
2023/10/07 21:32:21;;;;;;;0.63;0.20;;;;;;;23.25;100.00;102075.00;10456025;28;20052;-78
2023/10/07 21:37:23;;;;;;;0.35;0.35;;;;;;;23.30;100.00;102057.41;10456026;28;20052;-77
2023/10/07 21:42:25;;;;;;;0.70;0.43;;;;;;;23.30;100.00;102057.41;10439418;28;20052;-79
2023/10/07 21:47:27;;;;;;;1.17;0.50;;;;;;;23.13;100.00;102065.41;10455863;28;20041;-78
2023/10/07 21:52:29;;;;;;;0.52;0.10;;;;;;;23.17;100.00;102066.25;10446627;28;20092;-77
2023/10/07 21:57:31;;;;;;;0.28;0.20;;;;;;;23.23;100.00;102050.47;10437028;28;20048;-79
2023/10/07 22:02:36;;;;;;;0.52;0.15;;;;;;;23.16;100.00;102043.50;10442909;28;20052;-78
2023/10/07 22:07:38;;;;;;;0.80;0.38;;;;;;;23.14;100.00;102047.00;10455618;28;20041;-78
2023/10/07 22:12:42;;;;;;;0.32;0.32;;;;;;;23.26;100.00;102042.56;10454605;28;20045;-78
2023/10/07 22:17:45;;;;;;;1.33;0.13;;;;;;;22.92;100.00;102066.44;10455764;28;20041;-78
2023/10/07 22:22:47;;;;;;;0.35;0.32;;;;;;;22.95;100.00;102066.44;10437903;28;20074;-78
2023/10/07 22:27:49;;;;;;;2.80;0.30;;;;;;;22.98;100.00;102071.66;10454783;28;20416;-77
2023/10/07 22:32:58;;;;;;;0.25;0.25;;;;;;;23.08;100.00;102072.47;10454428;28;20450;-77
2023/10/07 22:38:08;;;;;;;0.57;0.47;;;;;;;23.00;100.00;102098.81;10471230;28;20139;-77
2023/10/07 22:43:11;;;;;;;0.65;0.20;;;;;;;23.02;100.00;102094.41;10454177;28;20056;-78
2023/10/07 22:48:27;;;;;;;0.28;0.20;;;;;;;22.94;100.00;102091.81;10421480;28;20056;-77
2023/10/07 22:53:32;;;;;;;0.00;0.00;;;;;;;22.90;100.00;102099.72;10454107;28;20041;-78
2023/10/07 22:58:37;;;;;;;0.13;0.05;;;;;;;22.88;100.00;102097.13;10455313;28;20041;-77
2023/10/07 23:03:50;;;;;;;4.85;0.30;;;;;;;22.99;100.00;102094.44;10453873;28;20040;-77
2023/10/07 23:14:06;;;;;;;0.08;0.08;;;;;;;23.15;100.00;102082.06;10454167;28;20049;-77
2023/10/07 23:19:08;;;;;;;0.10;0.10;;;;;;;23.37;100.00;102093.28;10437268;28;20088;-77
2023/10/07 23:24:43;;;;;;;0.30;0.20;;;;;;;23.35;100.00;102113.44;10453376;28;20049;-77
2023/10/07 23:35:45;;;;;;;0.00;0.00;;;;;;;22.96;100.00;102123.38;10461065;28;20567;-77
2023/10/07 23:40:51;;;;;;;0.95;0.68;;;;;;;22.96;100.00;102134.75;10460435;28;20067;-77
2023/10/07 23:45:54;;;;;;;0.28;0.28;;;;;;;23.03;100.00;102132.97;10460318;28;20036;-76
2023/10/07 23:50:56;;;;;;;0.10;0.10;;;;;;;22.99;100.00;102118.06;10443035;28;20481;-77
2023/10/07 23:56:22;;;;;;;0.55;0.28;;;;;;;22.96;100.00;102137.38;10443197;28;20095;-77
